Time;durP1;ratioP1;P1;durP2;ratioP2;P2;SDS_P1;SDS_P2;PMS_P1;PMS_P2;Temp;Humidity;BMP_temperature;BMP_pressure;BME280_temperature;BME280_humidity;BME280_pressure;Samples;Min_cycle;Max_cycle;Signal;HPM_P1;HPM_P2
2021/11/25 00:01:57;;;;;;;30.68;23.02;;;;;;;3.85;78.62;100275.44;2949048;80;21234;-74
2021/11/25 00:05:59;;;;;;;31.68;22.00;;;;;;;3.82;78.48;100269.00;2857580;83;21055;-72
2021/11/25 00:10:01;;;;;;;36.35;26.05;;;;;;;3.78;78.64;100260.44;2857359;83;21006;-74
2021/11/25 00:14:03;;;;;;;43.13;23.12;;;;;;;3.53;79.53;100261.73;2879732;82;20998;-73
2021/11/25 00:18:05;;;;;;;36.85;24.15;;;;;;;3.30;80.59;100257.70;2897723;82;21570;-74
2021/11/25 00:22:07;;;;;;;26.45;19.67;;;;;;;3.13;81.22;100245.41;2897820;80;20973;-74
2021/11/25 00:26:10;;;;;;;29.85;20.48;;;;;;;3.02;81.82;100243.33;2897877;82;21056;-74
2021/11/25 00:30:12;;;;;;;29.57;21.70;;;;;;;2.93;82.38;100241.19;2897859;82;21144;-74
2021/11/25 00:34:14;;;;;;;32.63;22.65;;;;;;;2.88;82.65;100236.63;2897710;82;21044;-72
2021/11/25 00:38:16;;;;;;;31.75;20.82;;;;;;;2.85;82.44;100228.42;2857194;83;21129;-74
2021/11/25 00:42:17;;;;;;;42.03;23.55;;;;;;;2.90;81.96;100221.16;2879016;82;21075;-74
2021/11/25 00:46:19;;;;;;;35.70;24.00;;;;;;;2.78;82.28;100217.86;2897950;81;21001;-72
2021/11/25 00:50:21;;;;;;;29.52;21.85;;;;;;;2.66;82.35;100218.01;2897836;82;21056;-73
2021/11/25 00:54:23;;;;;;;31.15;19.52;;;;;;;2.54;82.91;100214.19;2897821;82;21050;-72
2021/11/25 00:58:25;;;;;;;34.33;23.32;;;;;;;2.40;83.80;100214.43;2897899;82;21032;-74
2021/11/25 01:02:26;;;;;;;29.67;20.25;;;;;;;2.38;83.88;100200.98;2897889;82;20953;-73
2021/11/25 01:06:28;;;;;;;32.88;21.62;;;;;;;2.34;84.15;100208.14;2893567;82;21064;-72
2021/11/25 01:10:32;;;;;;;35.65;21.07;;;;;;;2.28;84.31;100200.13;2969396;80;21035;-72
2021/11/25 01:14:35;;;;;;;25.95;20.00;;;;;;;2.32;84.37;100191.62;2858317;83;21433;-72
2021/11/25 01:18:37;;;;;;;27.42;19.92;;;;;;;2.29;84.87;100187.84;2879938;82;21072;-74
2021/11/25 01:22:39;;;;;;;38.25;23.95;;;;;;;2.25;85.41;100183.67;2898485;82;21064;-72
2021/11/25 01:26:41;;;;;;;31.00;22.25;;;;;;;2.27;84.78;100177.44;2898268;82;21051;-74
2021/11/25 01:30:47;;;;;;;27.87;20.65;;;;;;;2.35;83.43;100175.72;2894361;82;21020;-72
2021/11/25 01:34:49;;;;;;;28.83;19.00;;;;;;;2.50;83.42;100162.76;2893869;82;21017;-72
2021/11/25 01:38:50;;;;;;;28.55;20.95;;;;;;;2.63;82.77;100150.72;2893918;82;21009;-73
2021/11/25 01:42:52;;;;;;;32.53;24.23;;;;;;;2.55;82.65;100144.98;2894079;81;21314;-72
2021/11/25 01:46:54;;;;;;;36.98;22.82;;;;;;;2.40;83.80;100151.87;2893913;82;21056;-73
2021/11/25 01:50:55;;;;;;;37.95;24.10;;;;;;;2.23;84.64;100150.09;2893904;82;21078;-72
2021/11/25 01:54:57;;;;;;;33.73;20.60;;;;;;;2.12;85.90;100138.33;2965174;79;21036;-74
2021/11/25 01:58:59;;;;;;;32.15;22.07;;;;;;;2.09;86.37;100126.67;2964910;79;21009;-73
2021/11/25 02:03:04;;;;;;;41.23;23.18;;;;;;;2.14;86.15;100122.05;2965226;80;21062;-72
2021/11/25 02:07:05;;;;;;;29.98;20.90;;;;;;;2.19;85.64;100124.93;2964981;80;21016;-73
2021/11/25 02:11:07;;;;;;;39.27;22.13;;;;;;;2.25;84.99;100117.57;2965154;80;20992;-74
2021/11/25 02:15:12;;;;;;;35.85;23.32;;;;;;;2.17;84.89;100111.03;2964926;80;21024;-73
2021/11/25 02:19:14;;;;;;;28.15;19.95;;;;;;;1.94;85.86;100105.12;2964996;80;21071;-74
2021/11/25 02:23:18;;;;;;;35.38;24.05;;;;;;;1.80;86.51;100093.99;2965317;80;21051;-74
2021/11/25 02:27:21;;;;;;;33.58;22.55;;;;;;;1.75;87.00;100082.88;2965134;80;21003;-73
2021/11/25 02:31:23;;;;;;;35.08;22.22;;;;;;;1.67;87.14;100071.45;2965346;80;21024;-74
2021/11/25 02:35:29;;;;;;;34.53;20.92;;;;;;;1.61;87.16;100064.72;2964969;80;21697;-74
2021/11/25 02:39:31;;;;;;;29.25;20.17;;;;;;;1.46;87.81;100061.07;2965021;80;21062;-74
2021/11/25 02:43:35;;;;;;;30.25;20.90;;;;;;;1.38;88.22;100056.66;2965001;80;21056;-72
2021/11/25 02:47:36;;;;;;;27.30;19.17;;;;;;;1.31;88.92;100056.55;2974070;79;21033;-74
2021/11/25 02:51:38;;;;;;;31.97;18.15;;;;;;;1.34;89.52;100045.91;2991012;79;20990;-73
2021/11/25 02:55:40;;;;;;;25.70;17.48;;;;;;;1.37;89.36;100040.52;3012970;79;21034;-74
2021/11/25 02:59:41;;;;;;;29.77;21.20;;;;;;;1.44;89.13;100020.98;2964964;80;20978;-74
2021/11/25 03:03:43;;;;;;;28.77;18.75;;;;;;;1.46;88.78;100014.33;2880241;82;21042;-74
2021/11/25 03:07:45;;;;;;;34.75;21.15;;;;;;;1.50;88.21;100016.73;2964846;80;21006;-73
2021/11/25 03:11:47;;;;;;;34.95;22.32;;;;;;;1.62;87.33;100003.97;2880558;82;21046;-74
2021/11/25 03:15:49;;;;;;;32.03;19.70;;;;;;;1.64;86.90;100000.33;2965457;80;21066;-72
2021/11/25 03:19:51;;;;;;;26.37;19.65;;;;;;;1.65;87.03;99994.16;2975519;79;21018;-74
2021/11/25 03:23:55;;;;;;;32.48;20.52;;;;;;;1.52;87.02;99987.36;2903174;81;21009;-72
2021/11/25 03:27:57;;;;;;;25.68;18.20;;;;;;;1.47;87.11;99978.88;3018869;78;20983;-74
2021/11/25 03:31:59;;;;;;;30.27;19.85;;;;;;;1.37;87.65;99975.86;3018563;79;21022;-73
2021/11/25 03:36:04;;;;;;;24.00;17.48;;;;;;;1.31;87.70;99970.92;3018746;79;21018;-72
2021/11/25 03:40:08;;;;;;;26.77;18.75;;;;;;;1.25;88.05;99962.89;2959246;80;21045;-74
2021/11/25 03:44:10;;;;;;;29.55;18.77;;;;;;;1.21;88.25;99952.17;2891553;81;21050;-72
2021/11/25 03:48:12;;;;;;;25.70;17.12;;;;;;;1.19;89.43;99943.55;2962673;80;21026;-73
2021/11/25 03:52:14;;;;;;;31.37;19.75;;;;;;;1.21;89.34;99933.84;2904887;82;21434;-73
2021/11/25 03:56:16;;;;;;;29.82;22.27;;;;;;;1.26;88.76;99922.66;2899220;82;20999;-75
2021/11/25 04:00:21;;;;;;;33.23;21.15;;;;;;;1.39;88.32;99922.06;2943242;80;21055;-73
2021/11/25 04:04:24;;;;;;;37.90;20.48;;;;;;;1.51;87.50;99908.81;2962406;80;21514;-74
2021/11/25 04:08:26;;;;;;;32.73;19.73;;;;;;;1.68;86.40;99907.94;2910550;80;21030;-69
2021/11/25 04:12:27;;;;;;;26.25;18.67;;;;;;;1.77;85.72;99897.45;2841448;83;21011;-70
2021/11/25 04:16:31;;;;;;;27.75;19.12;;;;;;;1.61;85.30;99898.70;2896067;82;21018;-70
2021/11/25 04:20:34;;;;;;;30.32;20.88;;;;;;;1.48;85.61;99884.89;2811503;84;21086;-73
2021/11/25 04:24:35;;;;;;;27.55;19.00;;;;;;;1.45;85.68;99881.57;2890111;82;21495;-71
2021/11/25 04:28:37;;;;;;;23.03;16.23;;;;;;;1.43;85.91;99875.11;2875344;81;21073;-72
2021/11/25 04:37:01;;;;;;;28.80;18.90;;;;;;;1.40;86.54;99857.76;2828083;84;21042;-72
2021/11/25 04:41:03;;;;;;;20.00;15.20;;;;;;;1.38;86.15;99854.37;2836886;82;21067;-71
2021/11/25 04:45:06;;;;;;;27.65;17.25;;;;;;;1.31;86.24;99844.27;2870424;82;21292;-71
2021/11/25 04:49:09;;;;;;;26.05;16.67;;;;;;;1.21;86.95;99842.58;2903394;82;21074;-72
2021/11/25 04:53:12;;;;;;;26.73;17.60;;;;;;;1.22;86.63;99833.34;2928037;81;21009;-72
2021/11/25 04:57:14;;;;;;;31.33;20.37;;;;;;;1.40;86.32;99830.72;2947005;80;21030;-72
2021/11/25 05:01:16;;;;;;;25.25;18.02;;;;;;;1.61;85.85;99822.19;2928782;80;21078;-72
2021/11/25 05:05:18;;;;;;;27.35;15.60;;;;;;;1.77;84.49;99822.25;2930645;80;20987;-74
2021/11/25 05:09:19;;;;;;;27.93;18.27;;;;;;;1.88;82.44;99826.94;2905718;81;21038;-72
2021/11/25 05:13:21;;;;;;;28.25;21.73;;;;;;;1.95;82.64;99816.48;2904184;82;21053;-72
2021/11/25 05:17:24;;;;;;;25.45;16.82;;;;;;;2.06;82.52;99821.16;2903828;82;21079;-73
2021/11/25 05:21:26;;;;;;;21.87;15.85;;;;;;;1.83;82.05;99817.98;2904211;82;21069;-72
2021/11/25 05:25:27;;;;;;;25.08;16.20;;;;;;;1.79;82.89;99812.53;2898708;81;21019;-72
2021/11/25 05:29:29;;;;;;;25.12;14.33;;;;;;;1.70;83.26;99806.44;2914979;81;21014;-73
2021/11/25 05:33:31;;;;;;;23.80;16.45;;;;;;;1.60;83.85;99803.94;2914012;80;20983;-71
2021/11/25 05:37:34;;;;;;;27.10;16.60;;;;;;;1.59;83.68;99804.38;2932979;80;21740;-78
2021/11/25 05:41:37;;;;;;;24.18;13.95;;;;;;;1.44;83.56;99802.10;2926732;80;21069;-75
2021/11/25 05:45:39;;;;;;;23.27;15.50;;;;;;;1.49;82.32;99799.25;2887237;81;21042;-75
2021/11/25 05:49:41;;;;;;;32.05;21.17;;;;;;;1.48;82.18;99791.01;2892523;81;21042;-74
2021/11/25 05:53:42;;;;;;;22.60;17.30;;;;;;;1.72;81.52;99784.91;2916983;81;20998;-79
2021/11/25 05:57:44;;;;;;;28.98;18.07;;;;;;;2.00;80.68;99779.52;2916342;81;21030;-79
2021/11/25 06:01:46;;;;;;;27.22;18.57;;;;;;;2.16;79.96;99769.02;2916799;81;21081;-78
2021/11/25 06:05:47;;;;;;;25.77;15.83;;;;;;;2.41;79.34;99772.44;2916942;80;20928;-80
2021/11/25 06:09:49;;;;;;;31.85;17.52;;;;;;;2.47;78.93;99771.70;2916668;81;21002;-80
2021/11/25 06:13:51;;;;;;;27.30;17.10;;;;;;;2.51;78.65;99775.84;2916475;81;21034;-79
2021/11/25 06:17:53;;;;;;;28.10;17.00;;;;;;;2.61;78.26;99777.48;2916694;81;20999;-81
2021/11/25 06:21:56;;;;;;;29.80;20.92;;;;;;;2.59;78.19;99782.84;2916842;80;21502;-79
2021/11/25 06:25:58;;;;;;;27.70;19.35;;;;;;;2.71;77.96;99787.37;2916635;81;21026;-79
2021/11/25 06:30:01;;;;;;;32.78;19.95;;;;;;;2.74;77.78;99770.61;2916585;80;21021;-78
2021/11/25 06:34:04;;;;;;;29.05;18.85;;;;;;;2.77;77.86;99764.34;2885907;81;29468;-77
2021/11/25 06:38:07;;;;;;;28.25;19.00;;;;;;;2.84;77.53;99765.18;2916429;81;21086;-78
2021/11/25 06:42:09;;;;;;;21.05;16.10;;;;;;;2.88;77.52;99754.04;2916945;80;21574;-78
2021/11/25 06:46:10;;;;;;;29.63;20.02;;;;;;;2.83;77.69;99760.03;2916609;80;21472;-79
2021/11/25 06:50:12;;;;;;;33.13;19.50;;;;;;;2.92;77.49;99760.80;2916502;81;21022;-78
2021/11/25 06:54:14;;;;;;;27.22;17.70;;;;;;;2.99;77.51;99770.48;2916507;81;21045;-81
2021/11/25 06:58:16;;;;;;;31.75;20.57;;;;;;;2.98;77.72;99763.09;2916503;81;21010;-80
2021/11/25 07:02:17;;;;;;;35.78;21.50;;;;;;;3.05;77.51;99764.89;2916149;81;21073;-81
2021/11/25 07:06:19;;;;;;;28.17;20.23;;;;;;;3.13;77.69;99764.41;2916455;81;21049;-81
2021/11/25 07:10:21;;;;;;;26.80;20.68;;;;;;;3.19;77.31;99764.06;2916289;81;20999;-81
2021/11/25 07:14:23;;;;;;;31.93;22.93;;;;;;;3.31;77.28;99772.14;2916366;81;21018;-80
2021/11/25 07:18:25;;;;;;;30.40;19.35;;;;;;;3.37;77.27;99763.91;2916195;81;21030;-80
2021/11/25 07:22:27;;;;;;;29.90;19.95;;;;;;;3.38;77.26;99756.39;2916326;81;21006;-80
2021/11/25 07:26:29;;;;;;;31.62;18.95;;;;;;;3.38;77.31;99765.59;2893966;81;21070;-80
2021/11/25 07:30:31;;;;;;;33.88;20.43;;;;;;;3.40;77.18;99759.77;2896635;82;21007;-78
2021/11/25 07:34:32;;;;;;;27.82;20.12;;;;;;;3.42;77.04;99751.32;2896364;82;21077;-79
2021/11/25 07:38:35;;;;;;;28.67;19.45;;;;;;;3.50;77.10;99761.38;2906201;82;21028;-77
2021/11/25 07:42:36;;;;;;;28.77;20.45;;;;;;;3.57;77.07;99747.77;2937574;80;21090;-80
2021/11/25 07:46:38;;;;;;;45.43;27.67;;;;;;;3.68;76.85;99749.73;2916101;81;20995;-80
2021/11/25 07:50:40;;;;;;;32.50;23.52;;;;;;;3.75;77.17;99755.46;2916080;81;21045;-77
2021/11/25 07:54:41;;;;;;;32.63;23.00;;;;;;;3.90;76.88;99756.28;2916063;81;21022;-80
2021/11/25 07:58:43;;;;;;;40.88;23.87;;;;;;;4.02;76.85;99746.77;2915724;81;21085;-80
2021/11/25 08:02:45;;;;;;;33.70;23.40;;;;;;;4.04;76.46;99748.00;2915741;81;21010;-81
2021/11/25 08:06:47;;;;;;;29.65;20.50;;;;;;;4.16;76.17;99731.89;2915981;81;20970;-80
2021/11/25 08:10:48;;;;;;;44.10;22.45;;;;;;;4.27;76.05;99720.18;2915841;81;21077;-79
2021/11/25 08:14:50;;;;;;;35.58;22.52;;;;;;;4.36;75.62;99718.28;2915821;81;21551;-79
2021/11/25 08:18:52;;;;;;;30.57;21.87;;;;;;;4.52;75.96;99722.52;2915555;80;21078;-78
2021/11/25 08:22:54;;;;;;;25.97;19.92;;;;;;;4.55;75.04;99709.18;2915293;81;21031;-77
2021/11/25 08:26:56;;;;;;;32.42;22.75;;;;;;;4.65;74.93;99710.24;2915407;81;21034;-80
2021/11/25 08:30:58;;;;;;;32.70;21.15;;;;;;;4.77;74.71;99705.94;2915476;81;21006;-78
2021/11/25 08:35:00;;;;;;;35.75;23.95;;;;;;;4.80;74.33;99713.63;2915512;81;21038;-79
2021/11/25 08:39:01;;;;;;;32.95;22.42;;;;;;;4.92;74.19;99709.36;2915173;81;21595;-79
2021/11/25 08:43:03;;;;;;;30.43;19.80;;;;;;;5.02;73.84;99708.72;2915100;81;21057;-77
2021/11/25 08:47:05;;;;;;;32.80;24.57;;;;;;;5.08;73.08;99705.66;2915204;81;21623;-81
2021/11/25 08:51:07;;;;;;;28.38;20.88;;;;;;;5.26;74.28;99704.89;2914815;81;21602;-78
2021/11/25 08:55:10;;;;;;;33.55;24.05;;;;;;;5.41;73.93;99702.97;2914981;81;21042;-80
2021/11/25 08:59:11;;;;;;;32.63;22.32;;;;;;;5.52;74.63;99697.80;2914613;81;20971;-79
2021/11/25 09:03:13;;;;;;;33.60;21.73;;;;;;;5.66;74.10;99705.20;2914813;81;20994;-80
2021/11/25 09:07:15;;;;;;;39.35;24.65;;;;;;;5.69;73.69;99701.02;2914614;81;20951;-78
2021/11/25 09:11:16;;;;;;;31.60;24.45;;;;;;;5.72;73.17;99701.66;2914524;81;21069;-80
2021/11/25 09:15:18;;;;;;;40.12;26.37;;;;;;;5.71;73.26;99704.42;2914455;81;21003;-80
2021/11/25 09:19:21;;;;;;;35.50;22.87;;;;;;;5.80;73.49;99700.28;2914081;81;21049;-78
2021/11/25 09:23:22;;;;;;;36.53;25.20;;;;;;;5.84;73.48;99687.23;2914356;81;21066;-80
2021/11/25 09:27:24;;;;;;;39.38;25.72;;;;;;;5.73;73.17;99689.31;2914520;81;21034;-80
2021/11/25 09:31:28;;;;;;;32.10;22.45;;;;;;;5.79;73.27;99687.55;2914010;81;21105;-78
2021/11/25 09:35:30;;;;;;;31.15;21.27;;;;;;;5.88;72.74;99681.23;2913919;81;21046;-80
2021/11/25 09:39:32;;;;;;;32.88;23.00;;;;;;;6.02;72.13;99689.53;2913888;81;21037;-79
2021/11/25 09:43:34;;;;;;;35.48;23.32;;;;;;;6.12;72.04;99680.83;2913551;81;21026;-79
2021/11/25 09:47:36;;;;;;;31.57;22.48;;;;;;;6.14;71.08;99671.45;2914066;81;21018;-79
2021/11/25 09:51:38;;;;;;;43.55;25.77;;;;;;;6.28;71.41;99658.55;2914038;81;21054;-80
2021/11/25 09:55:43;;;;;;;40.03;26.70;;;;;;;6.28;72.54;99662.50;2914014;81;21018;-78
2021/11/25 09:59:45;;;;;;;45.30;32.67;;;;;;;6.35;72.11;99659.80;2914228;81;21061;-80
2021/11/25 10:03:50;;;;;;;72.82;40.55;;;;;;;6.35;73.37;99664.22;2913457;81;20967;-80
2021/11/25 10:07:52;;;;;;;54.23;35.85;;;;;;;6.33;74.11;99643.69;2913953;81;21018;-78
2021/11/25 10:11:54;;;;;;;47.23;32.95;;;;;;;6.17;75.65;99634.74;2913709;81;21034;-80
2021/11/25 10:15:59;;;;;;;61.48;37.90;;;;;;;6.20;74.93;99627.45;2913579;81;20983;-80
2021/11/25 10:20:09;;;;;;;50.28;33.25;;;;;;;6.21;74.71;99622.98;2913723;81;20995;-79
2021/11/25 10:24:11;;;;;;;56.53;34.20;;;;;;;6.18;73.30;99621.41;2913199;81;21092;-80
2021/11/25 10:28:35;;;;;;;46.80;30.60;;;;;;;6.23;74.69;99619.75;2913295;81;21030;-79
2021/11/25 10:32:37;;;;;;;42.40;28.75;;;;;;;6.33;75.18;99608.88;2913315;81;21034;-80
2021/11/25 10:36:55;;;;;;;46.15;33.20;;;;;;;6.36;75.59;99606.46;2913354;81;21053;-80
2021/11/25 10:40:54;;;;;;;45.75;30.95;;;;;;;6.32;75.07;99601.91;2912452;81;21621;-79
2021/11/25 10:44:55;;;;;;;51.63;38.53;;;;;;;6.16;74.53;99598.73;2913179;81;21015;-80
2021/11/25 10:48:57;;;;;;;46.55;33.85;;;;;;;6.18;75.07;99595.49;2913097;81;21558;-80
2021/11/25 10:53:06;;;;;;;47.27;32.95;;;;;;;6.16;74.60;99594.27;2913034;81;21042;-78
2021/11/25 10:57:08;;;;;;;47.88;32.33;;;;;;;6.10;75.15;99582.39;2913014;81;21041;-78
2021/11/25 11:01:09;;;;;;;59.80;36.63;;;;;;;6.01;73.97;99585.70;2912989;81;21034;-80
2021/11/25 11:05:21;;;;;;;46.33;31.50;;;;;;;6.11;75.01;99576.16;2913374;81;21019;-79
2021/11/25 11:09:39;;;;;;;40.65;26.40;;;;;;;6.16;73.84;99568.36;2912328;81;21018;-79
2021/11/25 11:13:50;;;;;;;39.63;29.55;;;;;;;6.35;72.58;99556.77;2912583;81;21554;-76
2021/11/25 11:22:13;;;;;;;40.73;27.93;;;;;;;6.62;74.79;99549.00;2913635;81;21066;-79
2021/11/25 11:26:14;;;;;;;40.35;27.87;;;;;;;6.75;73.88;99542.27;2913397;80;21587;-79
2021/11/25 11:30:17;;;;;;;35.58;26.15;;;;;;;6.68;72.64;99541.94;2914248;80;21042;-78
2021/11/25 11:34:20;;;;;;;31.55;24.92;;;;;;;6.84;72.78;99538.07;2913669;81;21034;-80
2021/11/25 11:38:26;;;;;;;35.30;24.60;;;;;;;6.81;71.30;99525.09;2913808;81;21030;-80
2021/11/25 11:42:28;;;;;;;;;;;;;;;6.82;71.66;99517.53;2916723;81;21633;-79
2021/11/25 11:46:34;;;;;;;27.05;21.97;;;;;;;6.83;70.75;99504.20;2913192;81;20169;-79
2021/11/25 11:50:41;;;;;;;28.40;20.10;;;;;;;6.83;70.99;99500.23;2913620;81;21062;-76
2021/11/25 11:54:54;;;;;;;32.50;23.02;;;;;;;6.80;70.32;99492.55;2916188;81;21058;-78
2021/11/25 11:58:57;;;;;;;28.83;23.20;;;;;;;6.90;70.49;99493.98;2946158;80;21054;-76
2021/11/25 12:02:59;;;;;;;32.58;19.57;;;;;;;6.94;69.93;99501.17;2946584;80;21046;-80
2021/11/25 12:07:01;;;;;;;27.75;19.15;;;;;;;6.95;70.51;99479.91;2903164;82;21046;-80
2021/11/25 12:11:07;;;;;;;24.85;18.92;;;;;;;6.84;69.27;99469.34;2926052;81;21037;-80
2021/11/25 12:15:14;;;;;;;27.40;19.67;;;;;;;6.89;69.40;99459.26;2945477;80;21018;-80
2021/11/25 12:19:26;;;;;;;27.20;19.07;;;;;;;6.97;69.01;99459.94;2944097;80;21046;-77
2021/11/25 12:23:35;;;;;;;25.05;18.90;;;;;;;6.92;67.74;99457.69;2903610;82;21110;-76
2021/11/25 12:27:40;;;;;;;27.82;20.00;;;;;;;6.86;67.58;99459.48;2926058;81;20998;-78
2021/11/25 12:31:45;;;;;;;31.60;22.90;;;;;;;6.83;69.05;99453.12;2925650;81;21010;-78
2021/11/25 12:35:48;;;;;;;29.63;21.75;;;;;;;6.71;69.04;99453.61;2925694;81;21041;-79
2021/11/25 12:39:49;;;;;;;29.98;21.80;;;;;;;6.56;72.92;99452.53;2926107;81;21459;-77
2021/11/25 12:43:51;;;;;;;29.90;22.82;;;;;;;6.40;73.77;99443.66;2926132;81;21066;-79
2021/11/25 12:48:13;;;;;;;26.97;21.40;;;;;;;6.42;74.99;99444.37;2968606;80;21045;-79
2021/11/25 12:52:34;;;;;;;28.52;22.77;;;;;;;6.48;74.18;99434.28;2968720;80;21007;-79
2021/11/25 12:56:39;;;;;;;29.65;22.52;;;;;;;6.52;73.41;99428.64;2917006;81;21053;-77
2021/11/25 13:00:45;;;;;;;37.97;24.53;;;;;;;6.50;73.70;99425.28;2945153;80;21046;-80
2021/11/25 13:04:46;;;;;;;32.05;22.22;;;;;;;6.40;73.99;99423.02;2917391;81;20986;-79
2021/11/25 13:08:49;;;;;;;37.17;26.80;;;;;;;6.37;74.27;99429.37;2945316;80;21026;-79
2021/11/25 13:12:50;;;;;;;36.30;25.57;;;;;;;6.34;74.38;99432.25;2917359;81;21589;-79
2021/11/25 13:16:57;;;;;;;34.60;24.75;;;;;;;6.28;74.54;99435.35;2944840;80;21026;-79
2021/11/25 13:20:59;;;;;;;31.85;22.93;;;;;;;6.22;74.29;99427.92;2916851;81;21038;-78
2021/11/25 13:25:03;;;;;;;36.25;24.57;;;;;;;6.20;74.96;99427.20;2945211;80;20999;-78
2021/11/25 13:29:04;;;;;;;37.85;26.15;;;;;;;6.24;74.69;99427.31;2968609;80;21060;-79
2021/11/25 13:33:07;;;;;;;41.55;25.02;;;;;;;6.26;74.59;99433.31;3017942;78;21053;-77
2021/11/25 13:37:12;;;;;;;40.67;24.07;;;;;;;6.19;75.17;99428.16;3018203;78;20991;-79
2021/11/25 13:41:17;;;;;;;34.85;24.37;;;;;;;6.13;74.99;99433.42;3018540;78;21089;-78
2021/11/25 13:45:23;;;;;;;39.73;26.80;;;;;;;6.08;75.41;99444.33;2961380;80;21627;-79
2021/11/25 13:49:31;;;;;;;;;;;;;;;6.07;75.77;99441.33;2903299;82;21041;-78
2021/11/25 13:53:32;;;;;;;33.50;22.48;;;;;;;6.07;76.23;99443.97;2894937;81;20126;-79
2021/11/25 13:57:37;;;;;;;32.58;25.32;;;;;;;6.08;76.53;99441.69;2957384;79;21006;-78
2021/11/25 14:01:39;;;;;;;35.38;26.42;;;;;;;6.13;76.68;99450.59;2847873;82;21083;-72
2021/11/25 14:05:49;;;;;;;35.10;25.15;;;;;;;6.19;77.28;99436.08;2960064;79;21007;-74
2021/11/25 14:10:16;;;;;;;42.73;26.77;;;;;;;6.25;77.71;99443.52;2901640;82;21039;-68
2021/11/25 14:14:18;;;;;;;31.65;25.20;;;;;;;6.25;77.74;99443.52;2888990;82;21059;-73
2021/11/25 14:18:23;;;;;;;35.52;25.82;;;;;;;6.16;78.01;99462.23;2889576;82;21090;-71
2021/11/25 14:22:30;;;;;;;38.20;28.20;;;;;;;5.96;77.88;99453.18;2888551;82;21078;-70
2021/11/25 14:26:44;;;;;;;37.08;26.68;;;;;;;5.98;78.47;99448.62;2942417;80;20987;-69
2021/11/25 14:30:36;;;;;;;42.75;24.00;;;;;;;5.90;78.12;99440.45;2865433;82;21059;-67
2021/11/25 14:34:40;;;;;;;34.55;24.67;;;;;;;5.77;78.36;99445.80;2912100;80;20971;-71
2021/11/25 14:38:42;;;;;;;39.30;25.72;;;;;;;5.70;77.92;99446.27;2938451;80;21017;-72
2021/11/25 14:42:43;;;;;;;41.55;27.58;;;;;;;5.62;77.12;99445.16;2953968;80;20970;-69
2021/11/25 14:47:08;;;;;;;35.92;25.10;;;;;;;5.55;78.31;99440.81;2903870;81;21030;-67
2021/11/25 14:51:11;;;;;;;38.80;23.25;;;;;;;5.53;78.79;99439.63;2921639;81;21049;-72
2021/11/25 14:55:16;;;;;;;37.63;25.27;;;;;;;5.44;78.21;99464.03;2946976;80;21014;-69
2021/11/25 14:59:17;;;;;;;37.17;24.75;;;;;;;5.42;78.05;99458.89;2946775;80;21054;-73
2021/11/25 15:03:20;;;;;;;35.05;23.62;;;;;;;5.45;78.55;99447.25;2905161;81;21570;-73
2021/11/25 15:07:22;;;;;;;33.42;23.57;;;;;;;5.50;78.70;99437.68;2927269;81;21117;-72
2021/11/25 15:11:23;;;;;;;29.30;22.02;;;;;;;5.61;78.71;99440.84;2928025;81;21365;-70
2021/11/25 15:15:25;;;;;;;35.23;25.30;;;;;;;5.72;78.06;99439.56;2946345;79;21066;-70
2021/11/25 15:19:27;;;;;;;33.75;24.63;;;;;;;5.88;78.11;99431.78;2946556;80;21058;-71
2021/11/25 15:23:30;;;;;;;31.25;24.30;;;;;;;6.06;78.11;99419.03;2905294;81;21045;-73
2021/11/25 15:27:32;;;;;;;36.25;25.25;;;;;;;6.17;76.87;99408.45;2927810;81;21017;-70
2021/11/25 15:31:37;;;;;;;36.73;28.83;;;;;;;6.24;76.66;99412.78;2947293;79;21035;-73
2021/11/25 15:35:52;;;;;;;33.98;26.90;;;;;;;6.32;76.22;99430.22;2946977;80;20983;-72
2021/11/25 15:39:54;;;;;;;34.30;23.12;;;;;;;6.38;76.54;99448.22;2905573;81;21030;-70
2021/11/25 15:43:56;;;;;;;32.98;24.40;;;;;;;6.47;76.41;99445.81;2928023;80;21089;-71
2021/11/25 15:47:58;;;;;;;30.72;22.95;;;;;;;6.31;75.93;99455.41;3016528;78;21030;-70
2021/11/25 15:51:59;;;;;;;30.37;23.05;;;;;;;6.28;77.15;99452.52;3016146;78;21060;-71
2021/11/25 15:56:01;;;;;;;34.85;24.87;;;;;;;6.30;77.48;99458.55;3016788;79;21041;-73
2021/11/25 16:00:06;;;;;;;65.10;41.00;;;;;;;6.32;77.57;99451.81;3016802;79;20967;-73
2021/11/25 16:04:13;;;;;;;40.03;27.87;;;;;;;6.18;76.83;99451.07;3016485;78;21550;-72
2021/11/25 16:08:12;;;;;;;45.83;31.12;;;;;;;6.12;77.95;99451.09;3015650;78;21073;-71
2021/11/25 16:12:16;;;;;;;37.53;26.80;;;;;;;6.00;77.38;99461.22;3016314;79;21025;-72
2021/11/25 16:16:17;;;;;;;38.98;26.87;;;;;;;5.64;77.97;99452.02;3016350;78;21002;-70
2021/11/25 16:20:20;;;;;;;36.25;26.73;;;;;;;5.44;79.78;99436.34;3016147;79;21021;-71
2021/11/25 16:24:22;;;;;;;40.40;27.87;;;;;;;5.25;79.05;99440.33;3016371;77;20979;-70
2021/11/25 16:28:24;;;;;;;48.45;29.70;;;;;;;5.26;79.22;99446.45;3016209;79;20975;-72
2021/11/25 16:32:26;;;;;;;42.78;28.35;;;;;;;5.04;77.61;99456.39;3016277;79;20994;-71
2021/11/25 16:36:28;;;;;;;45.35;30.62;;;;;;;4.96;77.17;99460.43;3016191;79;21010;-73
2021/11/25 16:40:30;;;;;;;48.73;31.65;;;;;;;4.94;77.12;99453.58;3016383;78;21021;-73
2021/11/25 16:44:35;;;;;;;47.83;31.70;;;;;;;4.77;75.95;99456.11;3015984;79;21065;-73
2021/11/25 16:48:37;;;;;;;50.05;31.33;;;;;;;4.77;76.58;99458.74;3011793;79;21514;-72
2021/11/25 16:52:39;;;;;;;53.78;32.73;;;;;;;4.57;75.75;99468.41;3011802;78;21069;-71
2021/11/25 16:56:41;;;;;;;59.45;38.17;;;;;;;4.54;76.30;99473.06;3011637;79;21064;-72
2021/11/25 17:00:43;;;;;;;49.50;34.90;;;;;;;4.43;76.37;99466.73;3011173;78;21050;-72
2021/11/25 17:04:44;;;;;;;44.08;29.95;;;;;;;4.43;76.41;99469.86;3011555;79;21028;-72
2021/11/25 17:08:46;;;;;;;47.33;31.62;;;;;;;4.42;76.59;99469.47;3011633;78;21030;-71
2021/11/25 17:12:48;;;;;;;57.25;33.70;;;;;;;4.43;76.79;99466.73;3011718;79;21022;-72
2021/11/25 17:16:50;;;;;;;48.55;34.73;;;;;;;4.47;77.80;99461.25;3011486;79;21038;-70
2021/11/25 17:20:54;;;;;;;48.75;35.28;;;;;;;4.41;76.77;99455.47;3011860;79;21018;-71
2021/11/25 17:24:56;;;;;;;50.88;31.33;;;;;;;4.34;77.05;99451.59;3011800;79;21046;-71
2021/11/25 17:28:59;;;;;;;48.30;34.92;;;;;;;4.28;77.97;99444.09;3011886;79;21538;-72
2021/11/25 17:33:01;;;;;;;48.17;30.48;;;;;;;4.29;78.22;99447.09;3014801;78;21061;-72
2021/11/25 17:37:03;;;;;;;50.65;31.62;;;;;;;4.20;78.74;99444.63;2970083;80;21045;-73
2021/11/25 17:41:06;;;;;;;45.85;32.05;;;;;;;4.13;78.87;99445.55;2946324;80;21011;-72
2021/11/25 17:45:09;;;;;;;51.60;35.50;;;;;;;4.20;79.00;99443.80;2916975;81;21052;-70
2021/11/25 17:49:12;;;;;;;53.63;36.30;;;;;;;4.32;77.62;99453.46;2930267;80;21073;-69
2021/11/25 17:53:13;;;;;;;52.50;34.45;;;;;;;4.43;77.71;99447.48;2930860;80;21014;-70
2021/11/25 17:57:15;;;;;;;52.17;36.30;;;;;;;4.51;77.04;99448.23;2949169;80;21322;-70
2021/11/25 18:01:17;;;;;;;53.58;32.23;;;;;;;4.56;77.46;99447.45;2949203;80;21022;-72
2021/11/25 18:05:20;;;;;;;59.20;37.08;;;;;;;4.63;77.02;99455.28;2949391;80;20991;-69
2021/11/25 18:09:21;;;;;;;55.10;35.20;;;;;;;4.62;76.89;99456.23;2948736;80;21579;-72
2021/11/25 18:13:23;;;;;;;56.68;35.35;;;;;;;4.63;76.58;99456.60;2906068;81;21006;-73
2021/11/25 18:17:25;;;;;;;52.20;33.58;;;;;;;4.59;75.99;99451.19;2879733;81;21022;-70
2021/11/25 18:21:27;;;;;;;52.00;33.63;;;;;;;4.60;76.05;99459.91;2879647;82;21070;-70
2021/11/25 18:25:29;;;;;;;50.35;33.58;;;;;;;4.55;76.68;99451.87;2898049;82;21023;-70
2021/11/25 18:29:31;;;;;;;56.30;36.17;;;;;;;4.55;76.65;99447.92;2897746;82;21054;-67
2021/11/25 18:33:32;;;;;;;61.13;38.05;;;;;;;4.51;76.93;99448.23;2893908;82;20969;-68
2021/11/25 18:37:34;;;;;;;56.15;36.73;;;;;;;4.52;76.83;99447.28;2969193;80;21002;-66
2021/11/25 18:41:36;;;;;;;52.35;36.65;;;;;;;4.51;77.18;99441.64;2921581;80;21297;-67
2021/11/25 18:45:37;;;;;;;52.13;36.08;;;;;;;4.53;77.13;99446.36;2885121;82;21094;-70
2021/11/25 18:49:39;;;;;;;47.08;37.17;;;;;;;4.56;77.34;99451.41;2898977;81;20998;-69
2021/11/25 18:53:41;;;;;;;49.83;37.03;;;;;;;4.54;77.48;99456.77;2879870;81;20978;-68
2021/11/25 18:57:44;;;;;;;51.60;34.18;;;;;;;4.52;77.44;99452.09;2906304;81;21062;-69